Airport ID:K0A0
Update Time (UTC):04/07/2020 15:18
Wind Speed (Knots):13
Wind Direction (Magnetic):330
Temperature (°C):26.8
Dew Point (°C):12.4
Humidity (%):40.9
Altimeter (inHg):30.16
Density Altitude (Feet):06900
Visibility (Miles):10
Clouds (Hundreds of feet):CLR
Present Weather:
METAR:METAR K0A0 041515Z AUTO 35013KT 10SM CLR 27/12 A3016 RMK AO2

The data displayed is for advisory purposes only and is not to be used for flight planning or operations.